Bemidji Regional Airport
KBJI : now visible

Aeroporto :











RITROVATECI SU...

 
LOGIN :

Iscrizione | Disclaimer

   EN    FR    IT 

 









Sommario :    VFR   VFR Marginale   IFR   IFR Intensivo   IFR Molto Intensivo
Visibilità : 
Base nubi : 
>= 8 km
>= 3000ft
5 / 8 km
1000 / 3000 ft
1500m / 5 km
500 / 1000 ft
800 / 1500m
200 / 500 ft
< 800m
< 200 ft
Simboli :   Temporali  Nebbia  Neve Forte  Precipitazioni Forti  Vento > 20 kt







- Altitudine del aeroporto : 1391 ft


KBJI - Bemidji Regional

ULTIMO METAR :
  • 201416Z AUTO 17009KT 10SM SCT033 SCT040 SCT050 10/03 A2965 RMK AO2 T00950026

METARs OBSOLETI :
  • 201356Z AUTO 17008KT 10SM -RA SCT035 BKN047 OVC090 09/03 A2966 RMK AO2 T00850028
  • 201335Z AUTO 21006KT 10SM SCT090 BKN120 09/01 A2967 RMK AO2 T00910012
  • 201315Z AUTO 18008KT 10SM SCT120 09/01 A2966 RMK AO2 T00860011
  • 201256Z AUTO 18008KT 10SM SCT100 08/01 A2967 RMK AO2 T00830012
  • 201235Z AUTO 15006KT 10SM SCT110 08/01 A2968 RMK AO2 T00820014
  • 201215Z AUTO 14005KT 10SM SCT110 08/02 A2969 RMK AO2 T00750016
  • 201156Z AUTO 00000KT 10SM SCT100 08/01 A2969 RMK AO2 T00830011 10096 20083
  • 201136Z AUTO 19006KT 10SM BKN100 09/01 A2969 RMK AO2 T00860013

TAF KBJI
Valido dal 20 a 12 ore il 21 a 12 ore UTC


201138Z 2012/2112 20005KT P6SM SCT120
FM201900 26006KT P6SM SCT120
FM210100 02006KT P6SM BKN090
FM211000 VRB04KT P6SM SCT070
FIR KZMP / America del Nord



MetMap, La meteo Aeronautica in un colpo d'occhio ! - Copyright ORBIFLY Dicembre 2007 - Disclaimer

ORBIFLY MET'MAP TEAM :

Programmazione e sviluppo : Alexandra Zaïnal
Concezione e sviluppo : Baudouin d'Aumeries
Co-Programmazione e sviluppo : Marc-Olivier Méhu
Supporto tecnico e logistico : Manuel Goepfert
Aiuto per la traduzione : Arnaldo La Scala

Contatto : metmap@orbifly.com




FONTI E CREDITI :

   NOAA       Earth
Advisory